Accueil
METAR-TAF:

METAR-TAF

Aéroports :

Bagdad, Irak

Aéroport international de Bagdad

latitude: 33-15-45N, longitude: 44-14-04E, altitude: 35 m

Observation

Le bulletin a été fait il y a 53 minutes, à 12:00 UTC
Vent 6 kt de ouest, variant entre sud-ouest et nord-ouest
Température 29°C
Humidité 15%
Pression 1014 hPa
Visibilité 10 km ou plus
pas de nuages en-dessous de 1500 mètres et pas de cumulonimbus.

METAR: ORBI 181200Z 26006KT 220V320 CAVOK 29/00 Q1014 NOSIG

Heure: 15:53 (12:53 UTC)

Prévision

Le bulletin a été fait il y a 2 heures et 53 minutes, à 10:00 UTC
Prévision valable du 18 à 12 UTC au 19 à 12 UTC
Vent 8 kt de ouest/nord-ouest
Visibilité: 8000 m

TAF: ORBI 181000Z 1812/1912 30008KT 8000 NSC

Observations et prévisions météorologiques de plus de 4000 aéroports (messages METAR et TAF).

Les stations disponibles sont représentées par des disques jaunes et rouges sur la carte.

Passer la souris dessus pour voir le nom de la station.

Cliquer dessus pour voir les observations et prévisions météorologiques.

Pour changer de carte: cliquez sur les boutons verts avec une croix noire pour zoomer, sur le bouton vert avec un tiret pour effectuer un zoom arrière, ou sur les flèches vertes pour les cartes adjacentes.


METAR-TAF: